AirNav   Air Wisconsin Up To $57,000 Bonus
 
 1154 users online  

9II4 Cruzan Field Airport
Arcadia, Indiana, USA

GOING TO ARCADIA?


FAA INFORMATION EFFECTIVE 26 MARCH 2020

Location

FAA Identifier: 9II4
Lat/Long: 40-10-21.0000N 085-56-41.0000W
40-10.350000N 085-56.683333W
40.1725000,-85.9447222
(estimated)
Elevation: 845 ft. / 258 m (estimated)
Variation: 03W (1990)
From city: 4 miles E of ARCADIA, IN
Time zone: UTC -4 (UTC -5 during Standard Time)
Zip code: 46034

Airport Operations

Airport use: Private use. Permission required prior to landing
Activation date: 11/1992
Control tower: no
ARTCC: CHICAGO CENTER
FSS: TERRE HAUTE FLIGHT SERVICE STATION
Attendance: UNATNDD
Wind indicator: yes
Segmented circle: no

Airport Communications

WX AWOS-3 at UMP (15 nm S): 119.375 (317-842-3911)
WX AWOS-3 at AID (16 nm E): 128.55 (765-442-1245)
WX AWOS-3PT at TYQ (16 nm SW): 120.725 (317-769-3154)
WX AWOS-3 at MQJ (20 nm S): 124.175 (317-335-3037)

Nearby radio navigation aids

VOR radial/distance  VOR name  Freq  Var
OKKr171/21.9KOKOMO VORTAC113.5005W
MZZr215/22.8MARION VOR/DME108.6003W
MIEr264/25.5MUNCIE VOR/DME114.4003W
VHPr041/29.0BRICKYARD VORTAC116.3001E
GUSr164/29.9GRISSOM VORTAC108.4502W
SHBr349/32.9SHELBYVILLE VOR/DME112.0001E

 
NDB name  Hdg/Dist  Freq  Var  ID
METROPOLITAN022/14.933803WUMP ..- -- .--.
NEW CASTLE307/33.738506WUWL ..- .-- .-..

Airport Services

Runway Information

Runway 9/27

Dimensions: 3300 x 70 ft. / 1006 x 21 m
Surface: turf
RUNWAY 9  RUNWAY 27
Latitude: 40-10.350000N
Longitude: 085-56.683333W
Elevation: 845.0 ft.
Traffic pattern: leftleft
Displaced threshold: no560 ft.
Obstructions: none35 ft. bldg, 140 ft. from runway

Airport Ownership and Management from official FAA records

Ownership: Privately-owned
Owner: ROBERT E. CRUZAN II
26410 S.R. 213
ARCADIA, IN 46030
Phone 317-439-0800
Manager: ROBERT E. CRUZAN II
26410 S.R. 213
ARCADIA, IN 46030
Phone 317-439-0800

Airport Operational Statistics

Aircraft based on the field: 4
Single engine airplanes: 1
Ultralights: 3
    

Additional Remarks

FOR CD CTC CHICAGO ARTCC AT 630-906-8921.

Instrument Procedures

There are no published instrument procedures at 9II4.

Some nearby airports with instrument procedures:

5I4 - Sheridan Airport (12 nm W)
KUMP - Indianapolis Metropolitan Airport (15 nm S)
KAID - Anderson Municipal Airport-Darlington Field (16 nm E)
KTYQ - Indianapolis Executive Airport (16 nm SW)
KMQJ - Indianapolis Regional Airport (20 nm S)
 
Loc | Ops | Rwys | IFR | FBO | Links
Com | Nav | Svcs | Stats | Notes
Area around 9II4 (Cruzan Field Airport)
 
Road maps at: MapQuest Bing Google
 
Aerial photo
No photo
 
Sectional chart

 
Airport distance calculator
Flying to Cruzan Field Airport? Find the distance to fly.

From to 9II4

Sunrise and sunset
Times for 31-Mar-2020
 Local
(UTC-4)
 Zulu
(UTC)
Morning civil twilight07:0111:01
Sunrise07:2911:29
Sunset20:0700:07
Evening civil twilight20:3400:34

Current date and time
Zulu (UTC)  31-Mar-2020 21:09:39
Local (UTC-4)  31-Mar-2020 17:09:39
 
METAR
KAID 
15nm E 
311959Z 34007KT 10SM SCT020 OVC028 05/02 A2991
KTYQ 
16nm SW 
312055Z AUTO 36007KT 7SM SCT024 OVC029 04/04 A2992 RMK AO2 T00370037
KOKK 
22nm N 
312056Z AUTO 35009KT 9SM -RA BKN011 OVC020 06/04 A2993 RMK AO2 RAB01 SLP141 P0000 60000 T00560044 56009
KMZZ 
23nm NE 
312055Z AUTO 36004KT 4SM BR BKN015 BKN022 OVC031 04/04 A2992 RMK AO2 T00430043
KMIE 
25nm E 
312053Z 36008KT 9SM BKN031 OVC039 06/03 A2989 RMK AO2 SLP125 T00610028 56009
KEYE 
26nm SW 
312053Z AUTO 35006KT 10SM OVC025 06/01 A2991 RMK AO2 SLP131 T00610006 56009
KFKR 
29nm W 
312055Z AUTO 36009KT 10SM BKN018 OVC024 07/02 A2995 RMK AO2 T00660020
KGUS 
29nm N 
311956Z 35009KT 10SM BKN017 OVC025 06/04 A2992 RMK AO2A SLP141 T00600042 $
TAF
KGUS 
29nm N 
311900Z 3119/0201 35009KT 9999 BKN015 QNH2991INS BECMG 0100/0101 36006KT 9999 BKN009 QNH2992INS BECMG 0115/0116 35009KT 9999 OVC015 QNH3003INS BECMG 0121/0122 VRB06KT 9999 BKN025 QNH3003INS TX08/0119Z TN04/0112Z
KIND 
31nm SW 
312020Z 3119/0124 36008KT P6SM OVC025 FM010300 35008KT P6SM BKN015 FM011600 36006KT P6SM BKN030 FM011700 35005KT P6SM BKN040
NOTAMs
Click for the latest NOTAMs
NOTAMs are issued by the DoD/FAA and will open in a separate window not controlled by AirNav.

 

 
 

Would you like to see your business listed on this page?

 If your business provides an interesting product or service to pilots, flight crews, aircraft, or users of the Cruzan Field Airport, you should consider listing it here.  To start the listing process, click on the button below
 
Add a business
 

Other Pages about Cruzan Field Airport

Update a link
 
Copyright © AirNav, LLC. All rights reserved. Privacy Policy  Contact